Wisby Teak — LAHV7 — position and weather

sailwx.info

Track history (hours):
 
Tides and Currents Weather Stations Pressure Air Temp Water Temp Dewpoint Dewpoint Depression Visibility Wind Speed Wind Dir Waves Ship Positions

Wisby Teak

Last reported at 2017-Sep-21 06:50 UTC. Time now 2017-Sep-23 16:29 UTC.
Position N 36°07' W 005°23'.

Length 100 m; draft 5.3 m.

Type: Ship. MMSI: 259944000.

Date/timePositionNaut miles runAvg speedWind from/ knotsBaromVisibWave heightAir tempDewpointWater temp
2017-Sep-21 06:50N 36°07' W 005°23'3 8.9
2017-Sep-21 06:30N 36°04' W 005°23'1 1.1
2017-Sep-21 06:00N 36°03' W 005°23'1 1.5
2017-Sep-21 05:30N 36°03' W 005°23'5 9.5
2017-Sep-21 05:00N 35°58' W 005°25'1410.8
2017-Sep-21 03:40N 35°54' W 005°42'311.2
2017-Sep-21 03:26N 35°54' W 005°45'510.5
2017-Sep-21 02:55N 35°53' W 005°52'27010.5
2017-Sep-20 01:16N 32°34' W 009°33'710.2
2017-Sep-20 00:32N 32°27' W 009°37'110.2
2017-Sep-20 00:26N 32°26' W 009°37'410.1
2017-Sep-20 00:00N 32°22' W 009°39'510.1
2017-Sep-19 23:29N 32°17' W 009°41'8 9.9
2017-Sep-19 22:38N 32°09' W 009°45'310.0
2017-Sep-19 22:21N 32°06' W 009°46'310.0
2017-Sep-19 22:00N 32°03' W 009°48'510.1
2017-Sep-19 21:30N 31°58' W 009°50'510.1
2017-Sep-19 21:00N 31°54' W 009°52'510.0
2017-Sep-19 20:30N 31°49' W 009°54'510.2
2017-Sep-19 20:00N 31°45' W 009°57'510.1
2017-Sep-19 19:30N 31°40' W 009°59'5 9.8
2017-Sep-19 19:00N 31°35' W 010°01'6 9.7
2017-Sep-19 18:23N 31°29' W 010°03'4 9.5
2017-Sep-19 18:00N 31°26' W 010°03'5 9.5
2017-Sep-19 17:30N 31°21' W 010°03'5 9.3
2017-Sep-19 17:00N 31°16' W 010°03'5 9.2
2017-Sep-19 16:30N 31°12' W 010°03'5 9.0
2017-Sep-19 15:55N 31°07' W 010°03'5 8.8
2017-Sep-19 15:22N 31°02' W 010°03'4 8.6
2017-Sep-19 14:56N 30°58' W 010°03'4 8.9
2017-Sep-19 14:30N 30°54' W 010°03'1810.3
2017-Sep-19 12:47N 30°36' W 010°03'3 9.8
2017-Sep-19 12:30N 30°35' W 010°01'5 9.9
2017-Sep-19 12:00N 30°32' W 009°56'17 1.3
2017-Sep-18 23:27N 30°25' W 009°38'0 0.0
2017-Sep-18 21:27N 30°25' W 009°38'0 0.0
2017-Sep-18 20:45N 30°25' W 009°38'0 0.0
2017-Sep-18 20:30N 30°25' W 009°38'0 0.0
2017-Sep-18 20:00N 30°25' W 009°38'0 0.0
2017-Sep-18 19:30N 30°25' W 009°38'0 0.0
2017-Sep-18 19:00N 30°25' W 009°38'0 0.0
2017-Sep-18 18:30N 30°25' W 009°38'0 0.0
2017-Sep-18 18:00N 30°25' W 009°38'0 0.0
2017-Sep-18 17:30N 30°25' W 009°38'0 0.0
2017-Sep-18 17:00N 30°25' W 009°38'0 0.0
2017-Sep-18 16:30N 30°25' W 009°38'0 0.0
2017-Sep-18 16:00N 30°25' W 009°38'0 0.0
2017-Sep-18 15:30N 30°25' W 009°38'0 0.0
2017-Sep-18 15:00N 30°25' W 009°38'0 0.0
2017-Sep-18 14:30N 30°25' W 009°38'0 0.0
2017-Sep-18 13:51N 30°25' W 009°38'0 0.0
2017-Sep-18 13:21N 30°25' W 009°38'0 0.0
2017-Sep-18 12:51N 30°25' W 009°38'0 0.0
2017-Sep-18 12:24N 30°25' W 009°38'0 0.0
2017-Sep-18 11:54N 30°25' W 009°38'0 0.0
2017-Sep-18 11:24N 30°25' W 009°38'0 0.0
2017-Sep-18 10:54N 30°25' W 009°38'0 0.0
2017-Sep-18 10:24N 30°25' W 009°38'0 0.0
2017-Sep-18 09:54N 30°25' W 009°38'0 0.0
2017-Sep-18 09:27N 30°25' W 009°38'0 0.1
2017-Sep-18 08:58N 30°25' W 009°38'1 2.0
2017-Sep-18 08:30N 30°25' W 009°39'0 0.5
2017-Sep-18 07:53N 30°25' W 009°39'1 2.3
2017-Sep-18 07:30N 30°25' W 009°40'1 1.7
2017-Sep-18 06:54N 30°25' W 009°41'0 0.2
2017-Sep-18 06:27N 30°25' W 009°41'0 0.0
2017-Sep-18 05:57N 30°25' W 009°41'0 0.0
2017-Sep-18 05:24N 30°25' W 009°41'0 0.0
2017-Sep-18 04:57N 30°25' W 009°41'0 0.0
2017-Sep-18 04:27N 30°25' W 009°42'0 0.0
2017-Sep-18 03:57N 30°25' W 009°41'0 0.0
2017-Sep-18 03:30N 30°25' W 009°42'0 0.0
2017-Sep-18 03:00N 30°25' W 009°42'0 0.0
2017-Sep-18 02:30N 30°25' W 009°42'0 0.0
2017-Sep-18 02:00N 30°25' W 009°42'0 0.0
2017-Sep-18 01:30N 30°25' W 009°42'0 0.1
2017-Sep-18 01:00N 30°25' W 009°42'1 1.8
2017-Sep-18 00:30N 30°25' W 009°43'4 8.1
2017-Sep-18 00:00N 30°26' W 009°47'510.0
2017-Sep-17 23:31N 30°29' W 009°52'510.7
2017-Sep-17 23:00N 30°32' W 009°57'610.6
2017-Sep-17 22:27N 30°36' W 010°02'510.9
2017-Sep-17 22:00N 30°40' W 010°05'6211.2
2017-Sep-17 16:28N 31°42' W 009°58'  
2017-Sep-15 07:52N 33°07' W 008°42'7 6.4
2017-Sep-15 06:51N 33°03' W 008°49'2811.2
2017-Sep-15 04:21N 32°52' W 009°19'411.0
2017-Sep-15 04:00N 32°49' W 009°22'611.0
2017-Sep-15 03:28N 32°44' W 009°26'610.9
2017-Sep-15 02:55N 32°39' W 009°30'510.8
2017-Sep-15 02:24N 32°35' W 009°34'410.9
2017-Sep-15 02:00N 32°31' W 009°37'610.9
2017-Sep-15 01:27N 32°26' W 009°41'510.7
2017-Sep-15 00:59N 32°22' W 009°44'510.5
2017-Sep-15 00:30N 32°18' W 009°48'510.0
2017-Sep-14 23:59N 32°14' W 009°51'5 9.7
2017-Sep-14 23:30N 32°10' W 009°54'6 9.7
2017-Sep-14 22:55N 32°05' W 009°59'4 9.8
2017-Sep-14 22:27N 32°02' W 010°02'5 9.7
2017-Sep-14 21:59N 31°58' W 010°05'4 9.3
2017-Sep-14 21:30N 31°54' W 010°08'5 9.2
2017-Sep-14 21:00N 31°51' W 010°11'5 9.2
2017-Sep-14 20:30N 31°47' W 010°14'6 9.1
2017-Sep-14 19:50N 31°42' W 010°18'3 9.1
2017-Sep-14 19:30N 31°39' W 010°20'5 9.3
2017-Sep-14 19:00N 31°36' W 010°23'5 9.1
2017-Sep-14 18:30N 31°32' W 010°26'4 8.8
2017-Sep-14 18:00N 31°28' W 010°29'5 9.2
2017-Sep-14 17:30N 31°25' W 010°32'5 9.1
2017-Sep-14 16:59N 31°21' W 010°36'4 9.1
2017-Sep-14 16:30N 31°17' W 010°38'5 9.6
2017-Sep-14 15:57N 31°13' W 010°42'5 9.9
2017-Sep-14 15:29N 31°09' W 010°45'4 9.2
2017-Sep-14 15:00N 31°05' W 010°48'510.0
2017-Sep-14 14:31N 31°01' W 010°51'510.0
2017-Sep-14 14:01N 30°57' W 010°55'510.0
2017-Sep-14 13:30N 30°53' W 010°58'510.2
2017-Sep-14 13:00N 30°49' W 011°02'510.2
2017-Sep-14 12:31N 30°45' W 011°05'510.4
2017-Sep-14 12:00N 30°40' W 011°08'510.3
2017-Sep-14 11:31N 30°36' W 011°12'610.6
2017-Sep-14 10:59N 30°32' W 011°15'510.7
2017-Sep-14 10:31N 30°27' W 011°19'510.7
2017-Sep-14 10:00N 30°23' W 011°22'1310.4
2017-Sep-14 08:42N 30°12' W 011°32'310.2
2017-Sep-14 08:23N 30°09' W 011°34'710.0
2017-Sep-14 07:39N 30°03' W 011°39'3 9.8
2017-Sep-14 07:22N 30°01' W 011°41'21 9.7
2017-Sep-14 05:16N 29°44' W 011°54'3 9.8
2017-Sep-14 04:58N 29°42' W 011°56'510.0
2017-Sep-14 04:30N 29°38' W 011°59'510.1
2017-Sep-14 04:01N 29°34' W 012°02'510.1
2017-Sep-14 03:28N 29°29' W 012°05'510.3
2017-Sep-14 03:01N 29°25' W 012°08'510.6
2017-Sep-14 02:31N 29°21' W 012°11'1310.3
2017-Sep-14 01:18N 29°11' W 012°20'310.2
2017-Sep-14 00:59N 29°08' W 012°22'510.2
2017-Sep-14 00:31N 29°04' W 012°25'510.2
2017-Sep-14 00:00N 29°00' W 012°29'5 9.9
2017-Sep-13 23:30N 28°56' W 012°33'510.2
2017-Sep-13 23:00N 28°52' W 012°36'510.4
2017-Sep-13 22:30N 28°48' W 012°40'510.1
2017-Sep-13 22:01N 28°44' W 012°43'510.3
2017-Sep-13 21:30N 28°40' W 012°46'510.1
2017-Sep-13 21:01N 28°36' W 012°49'5 9.9
2017-Sep-13 20:30N 28°32' W 012°53'5 9.9
2017-Sep-13 20:00N 28°27' W 012°56'510.1
2017-Sep-13 19:30N 28°23' W 012°59'510.5
2017-Sep-13 19:00N 28°19' W 013°03'510.5
2017-Sep-13 18:30N 28°15' W 013°06'510.1
2017-Sep-13 18:01N 28°11' W 013°09'510.2
2017-Sep-13 17:30N 28°06' W 013°13'510.4
2017-Sep-13 17:00N 28°02' W 013°16'510.5
2017-Sep-13 16:30N 27°58' W 013°19'510.5
2017-Sep-13 16:01N 27°54' W 013°23'510.4
2017-Sep-13 15:30N 27°49' W 013°26'510.4
2017-Sep-13 15:00N 27°45' W 013°30'510.1
2017-Sep-13 14:29N 27°40' W 013°30'510.0
2017-Sep-13 14:00N 27°35' W 013°31'910.2
2017-Sep-13 13:08N 27°26' W 013°31'410.7
2017-Sep-13 12:44N 27°22' W 013°31'410.6
2017-Sep-13 12:23N 27°18' W 013°31'410.5
2017-Sep-13 12:01N 27°14' W 013°31'510.7
2017-Sep-13 11:31N 27°09' W 013°29'5 7.3
2017-Sep-13 10:52N 27°06' W 013°26'0 0.3
2017-Sep-13 10:30N 27°06' W 013°26'1 0.1
2017-Sep-12 15:50N 27°05' W 013°27'1 3.7
2017-Sep-12 15:29N 27°05' W 013°28'  
Track history (hours):
 
Tides and Currents Weather Stations Pressure Air Temp Water Temp Dewpoint Dewpoint Depression Visibility Wind Speed Wind Dir Waves Ship Positions

Wisby Teak

Last reported at 2017-Sep-21 06:50 UTC. Time now 2017-Sep-23 16:29 UTC.
Position N 36°07' W 005°23'.

Length 100 m; draft 5.3 m.

Type: Ship. MMSI: 259944000.

Date/timePositionNaut miles runAvg speedWind from/ knotsBaromVisibWave heightAir tempDewpointWater temp
2017-Sep-21 06:50N 36°07' W 005°23'3 8.9
2017-Sep-21 06:30N 36°04' W 005°23'1 1.1
2017-Sep-21 06:00N 36°03' W 005°23'1 1.5
2017-Sep-21 05:30N 36°03' W 005°23'5 9.5
2017-Sep-21 05:00N 35°58' W 005°25'1410.8
2017-Sep-21 03:40N 35°54' W 005°42'311.2
2017-Sep-21 03:26N 35°54' W 005°45'510.5
2017-Sep-21 02:55N 35°53' W 005°52'27010.5
2017-Sep-20 01:16N 32°34' W 009°33'710.2
2017-Sep-20 00:32N 32°27' W 009°37'110.2
2017-Sep-20 00:26N 32°26' W 009°37'410.1
2017-Sep-20 00:00N 32°22' W 009°39'510.1
2017-Sep-19 23:29N 32°17' W 009°41'8 9.9
2017-Sep-19 22:38N 32°09' W 009°45'310.0
2017-Sep-19 22:21N 32°06' W 009°46'310.0
2017-Sep-19 22:00N 32°03' W 009°48'510.1
2017-Sep-19 21:30N 31°58' W 009°50'510.1
2017-Sep-19 21:00N 31°54' W 009°52'510.0
2017-Sep-19 20:30N 31°49' W 009°54'510.2
2017-Sep-19 20:00N 31°45' W 009°57'510.1
2017-Sep-19 19:30N 31°40' W 009°59'5 9.8
2017-Sep-19 19:00N 31°35' W 010°01'6 9.7
2017-Sep-19 18:23N 31°29' W 010°03'4 9.5
2017-Sep-19 18:00N 31°26' W 010°03'5 9.5
2017-Sep-19 17:30N 31°21' W 010°03'5 9.3
2017-Sep-19 17:00N 31°16' W 010°03'5 9.2
2017-Sep-19 16:30N 31°12' W 010°03'5 9.0
2017-Sep-19 15:55N 31°07' W 010°03'5 8.8
2017-Sep-19 15:22N 31°02' W 010°03'4 8.6
2017-Sep-19 14:56N 30°58' W 010°03'4 8.9
2017-Sep-19 14:30N 30°54' W 010°03'1810.3
2017-Sep-19 12:47N 30°36' W 010°03'3 9.8
2017-Sep-19 12:30N 30°35' W 010°01'5 9.9
2017-Sep-19 12:00N 30°32' W 009°56'17 1.3
2017-Sep-18 23:27N 30°25' W 009°38'0 0.0
2017-Sep-18 21:27N 30°25' W 009°38'0 0.0
2017-Sep-18 20:45N 30°25' W 009°38'0 0.0
2017-Sep-18 20:30N 30°25' W 009°38'0 0.0
2017-Sep-18 20:00N 30°25' W 009°38'0 0.0
2017-Sep-18 19:30N 30°25' W 009°38'0 0.0
2017-Sep-18 19:00N 30°25' W 009°38'0 0.0
2017-Sep-18 18:30N 30°25' W 009°38'0 0.0
2017-Sep-18 18:00N 30°25' W 009°38'0 0.0
2017-Sep-18 17:30N 30°25' W 009°38'0 0.0
2017-Sep-18 17:00N 30°25' W 009°38'0 0.0
2017-Sep-18 16:30N 30°25' W 009°38'0 0.0
2017-Sep-18 16:00N 30°25' W 009°38'0 0.0
2017-Sep-18 15:30N 30°25' W 009°38'0 0.0
2017-Sep-18 15:00N 30°25' W 009°38'0 0.0
2017-Sep-18 14:30N 30°25' W 009°38'0 0.0
2017-Sep-18 13:51N 30°25' W 009°38'0 0.0
2017-Sep-18 13:21N 30°25' W 009°38'0 0.0
2017-Sep-18 12:51N 30°25' W 009°38'0 0.0
2017-Sep-18 12:24N 30°25' W 009°38'0 0.0
2017-Sep-18 11:54N 30°25' W 009°38'0 0.0
2017-Sep-18 11:24N 30°25' W 009°38'0 0.0
2017-Sep-18 10:54N 30°25' W 009°38'0 0.0
2017-Sep-18 10:24N 30°25' W 009°38'0 0.0
2017-Sep-18 09:54N 30°25' W 009°38'0 0.0
2017-Sep-18 09:27N 30°25' W 009°38'0 0.1
2017-Sep-18 08:58N 30°25' W 009°38'1 2.0
2017-Sep-18 08:30N 30°25' W 009°39'0 0.5
2017-Sep-18 07:53N 30°25' W 009°39'1 2.3
2017-Sep-18 07:30N 30°25' W 009°40'1 1.7
2017-Sep-18 06:54N 30°25' W 009°41'0 0.2
2017-Sep-18 06:27N 30°25' W 009°41'0 0.0
2017-Sep-18 05:57N 30°25' W 009°41'0 0.0
2017-Sep-18 05:24N 30°25' W 009°41'0 0.0
2017-Sep-18 04:57N 30°25' W 009°41'0 0.0
2017-Sep-18 04:27N 30°25' W 009°42'0 0.0
2017-Sep-18 03:57N 30°25' W 009°41'0 0.0
2017-Sep-18 03:30N 30°25' W 009°42'0 0.0
2017-Sep-18 03:00N 30°25' W 009°42'0 0.0
2017-Sep-18 02:30N 30°25' W 009°42'0 0.0
2017-Sep-18 02:00N 30°25' W 009°42'0 0.0
2017-Sep-18 01:30N 30°25' W 009°42'0 0.1
2017-Sep-18 01:00N 30°25' W 009°42'1 1.8
2017-Sep-18 00:30N 30°25' W 009°43'4 8.1
2017-Sep-18 00:00N 30°26' W 009°47'510.0
2017-Sep-17 23:31N 30°29' W 009°52'510.7
2017-Sep-17 23:00N 30°32' W 009°57'610.6
2017-Sep-17 22:27N 30°36' W 010°02'510.9
2017-Sep-17 22:00N 30°40' W 010°05'6211.2
2017-Sep-17 16:28N 31°42' W 009°58'  
2017-Sep-15 07:52N 33°07' W 008°42'7 6.4
2017-Sep-15 06:51N 33°03' W 008°49'2811.2
2017-Sep-15 04:21N 32°52' W 009°19'411.0
2017-Sep-15 04:00N 32°49' W 009°22'611.0
2017-Sep-15 03:28N 32°44' W 009°26'610.9
2017-Sep-15 02:55N 32°39' W 009°30'510.8
2017-Sep-15 02:24N 32°35' W 009°34'410.9
2017-Sep-15 02:00N 32°31' W 009°37'610.9
2017-Sep-15 01:27N 32°26' W 009°41'510.7
2017-Sep-15 00:59N 32°22' W 009°44'510.5
2017-Sep-15 00:30N 32°18' W 009°48'510.0
2017-Sep-14 23:59N 32°14' W 009°51'5 9.7
2017-Sep-14 23:30N 32°10' W 009°54'6 9.7
2017-Sep-14 22:55N 32°05' W 009°59'4 9.8
2017-Sep-14 22:27N 32°02' W 010°02'5 9.7
2017-Sep-14 21:59N 31°58' W 010°05'4 9.3
2017-Sep-14 21:30N 31°54' W 010°08'5 9.2
2017-Sep-14 21:00N 31°51' W 010°11'5 9.2
2017-Sep-14 20:30N 31°47' W 010°14'6 9.1
2017-Sep-14 19:50N 31°42' W 010°18'3 9.1
2017-Sep-14 19:30N 31°39' W 010°20'5 9.3
2017-Sep-14 19:00N 31°36' W 010°23'5 9.1
2017-Sep-14 18:30N 31°32' W 010°26'4 8.8
2017-Sep-14 18:00N 31°28' W 010°29'5 9.2
2017-Sep-14 17:30N 31°25' W 010°32'5 9.1
2017-Sep-14 16:59N 31°21' W 010°36'4 9.1
2017-Sep-14 16:30N 31°17' W 010°38'5 9.6
2017-Sep-14 15:57N 31°13' W 010°42'5 9.9
2017-Sep-14 15:29N 31°09' W 010°45'4 9.2
2017-Sep-14 15:00N 31°05' W 010°48'510.0
2017-Sep-14 14:31N 31°01' W 010°51'510.0
2017-Sep-14 14:01N 30°57' W 010°55'510.0
2017-Sep-14 13:30N 30°53' W 010°58'510.2
2017-Sep-14 13:00N 30°49' W 011°02'510.2
2017-Sep-14 12:31N 30°45' W 011°05'510.4
2017-Sep-14 12:00N 30°40' W 011°08'510.3
2017-Sep-14 11:31N 30°36' W 011°12'610.6
2017-Sep-14 10:59N 30°32' W 011°15'510.7
2017-Sep-14 10:31N 30°27' W 011°19'510.7
2017-Sep-14 10:00N 30°23' W 011°22'1310.4
2017-Sep-14 08:42N 30°12' W 011°32'310.2
2017-Sep-14 08:23N 30°09' W 011°34'710.0
2017-Sep-14 07:39N 30°03' W 011°39'3 9.8
2017-Sep-14 07:22N 30°01' W 011°41'21 9.7
2017-Sep-14 05:16N 29°44' W 011°54'3 9.8
2017-Sep-14 04:58N 29°42' W 011°56'510.0
2017-Sep-14 04:30N 29°38' W 011°59'510.1
2017-Sep-14 04:01N 29°34' W 012°02'510.1
2017-Sep-14 03:28N 29°29' W 012°05'510.3
2017-Sep-14 03:01N 29°25' W 012°08'510.6
2017-Sep-14 02:31N 29°21' W 012°11'1310.3
2017-Sep-14 01:18N 29°11' W 012°20'310.2
2017-Sep-14 00:59N 29°08' W 012°22'510.2
2017-Sep-14 00:31N 29°04' W 012°25'510.2
2017-Sep-14 00:00N 29°00' W 012°29'5 9.9
2017-Sep-13 23:30N 28°56' W 012°33'510.2
2017-Sep-13 23:00N 28°52' W 012°36'510.4
2017-Sep-13 22:30N 28°48' W 012°40'510.1
2017-Sep-13 22:01N 28°44' W 012°43'510.3
2017-Sep-13 21:30N 28°40' W 012°46'510.1
2017-Sep-13 21:01N 28°36' W 012°49'5 9.9
2017-Sep-13 20:30N 28°32' W 012°53'5 9.9
2017-Sep-13 20:00N 28°27' W 012°56'510.1
2017-Sep-13 19:30N 28°23' W 012°59'510.5
2017-Sep-13 19:00N 28°19' W 013°03'510.5
2017-Sep-13 18:30N 28°15' W 013°06'510.1
2017-Sep-13 18:01N 28°11' W 013°09'510.2
2017-Sep-13 17:30N 28°06' W 013°13'510.4
2017-Sep-13 17:00N 28°02' W 013°16'510.5
2017-Sep-13 16:30N 27°58' W 013°19'510.5
2017-Sep-13 16:01N 27°54' W 013°23'510.4
2017-Sep-13 15:30N 27°49' W 013°26'510.4
2017-Sep-13 15:00N 27°45' W 013°30'510.1
2017-Sep-13 14:29N 27°40' W 013°30'510.0
2017-Sep-13 14:00N 27°35' W 013°31'910.2
2017-Sep-13 13:08N 27°26' W 013°31'410.7
2017-Sep-13 12:44N 27°22' W 013°31'410.6
2017-Sep-13 12:23N 27°18' W 013°31'410.5
2017-Sep-13 12:01N 27°14' W 013°31'510.7
2017-Sep-13 11:31N 27°09' W 013°29'5 7.3
2017-Sep-13 10:52N 27°06' W 013°26'0 0.3
2017-Sep-13 10:30N 27°06' W 013°26'1 0.1
2017-Sep-12 15:50N 27°05' W 013°27'1 3.7
2017-Sep-12 15:29N 27°05' W 013°28'  

Dump ship's entire track history